Time;durP1;ratioP1;P1;durP2;ratioP2;P2;SDS_P1;SDS_P2;PMS_P1;PMS_P2;Temp;Humidity;BMP_temperature;BMP_pressure;BME280_temperature;BME280_humidity;BME280_pressure;Samples;Min_cycle;Max_cycle;Signal;HPM_P1;HPM_P2
2021/11/12 00:11:51;;;;;;;32.10;22.42;;;9.50;99.90;;;;;;5094040;28;20107;-86
2021/11/12 00:13:08;;;;;;;32.95;24.00;;;9.50;99.90;;;;;;5115032;27;20062;-86
2021/11/12 00:15:41;;;;;;;38.42;25.52;;;9.60;99.90;;;;;;5108523;28;20096;-87
2021/11/12 00:18:11;;;;;;;38.47;27.05;;;9.50;99.90;;;;;;5109248;28;20496;-86
2021/11/12 00:20:38;;;;;;;37.78;26.40;;;9.50;99.90;;;;;;5090237;28;20032;-86
2021/11/12 00:23:04;;;;;;;36.55;25.65;;;9.50;99.90;;;;;;5107537;28;20028;-86
2021/11/12 00:25:30;;;;;;;37.40;26.25;;;9.50;99.90;;;;;;5107492;28;20110;-86
2021/11/12 00:27:56;;;;;;;34.47;24.42;;;9.50;99.90;;;;;;5107277;28;20023;-86
2021/11/12 00:30:47;;;;;;;35.47;25.33;;;9.50;99.90;;;;;;5107278;28;20011;-86
2021/11/12 00:36:04;;;;;;;37.30;26.73;;;9.50;99.90;;;;;;5108994;28;20031;-85
2021/11/12 00:38:36;;;;;;;40.25;26.70;;;9.50;99.90;;;;;;5107685;28;20114;-86
2021/11/12 00:41:32;;;;;;;38.28;26.92;;;9.50;99.90;;;;;;5108550;28;20031;-86
2021/11/12 00:44:12;;;;;;;34.42;23.65;;;9.40;99.90;;;;;;5107526;28;20035;-85
2021/11/12 00:46:46;;;;;;;35.15;24.92;;;9.50;99.90;;;;;;5092943;28;20070;-87
2021/11/12 00:49:16;;;;;;;34.78;24.45;;;9.40;99.90;;;;;;5108193;28;20031;-87
2021/11/12 00:51:44;;;;;;;35.42;24.35;;;9.40;99.90;;;;;;5108747;28;20114;-86
2021/11/12 00:54:12;;;;;;;39.83;26.77;;;9.40;99.90;;;;;;5107356;28;20107;-86
2021/11/12 00:56:38;;;;;;;37.58;26.27;;;9.40;99.90;;;;;;5110691;28;20076;-86
2021/11/12 00:59:07;;;;;;;39.95;25.58;;;9.40;99.90;;;;;;5112728;28;20451;-86
2021/11/12 01:01:37;;;;;;;36.97;26.30;;;9.40;99.90;;;;;;5113620;28;20062;-85
2021/11/12 01:04:07;;;;;;;43.17;28.77;;;9.40;99.90;;;;;;5112610;28;20019;-86
2021/11/12 01:06:35;;;;;;;36.25;25.90;;;9.40;99.90;;;;;;5111272;28;20424;-84
2021/11/12 01:09:10;;;;;;;37.30;26.10;;;9.40;99.90;;;;;;5110541;28;20015;-85
2021/11/12 01:11:42;;;;;;;35.83;25.77;;;9.40;99.90;;;;;;5110641;28;20039;-87
2021/11/12 01:14:29;;;;;;;35.30;24.73;;;9.40;99.90;;;;;;5110212;28;20103;-85
2021/11/12 01:16:54;;;;;;;33.40;23.42;;;9.40;99.90;;;;;;5100200;28;20055;-85
2021/11/12 01:19:21;;;;;;;34.22;23.65;;;9.40;99.90;;;;;;5112912;28;20062;-84
2021/11/12 01:21:47;;;;;;;32.70;23.48;;;9.30;99.90;;;;;;5112412;28;20479;-86
2021/11/12 01:24:13;;;;;;;32.67;22.75;;;9.30;99.90;;;;;;5115354;28;20016;-86
2021/11/12 01:26:49;;;;;;;33.25;22.17;;;9.40;99.90;;;;;;5116817;28;20108;-85
2021/11/12 01:29:15;;;;;;;38.03;25.15;;;9.40;99.90;;;;;;5113967;28;20020;-85
2021/11/12 01:31:43;;;;;;;35.08;25.90;;;9.40;99.90;;;;;;5114489;28;20023;-85
2021/11/12 01:34:11;;;;;;;33.28;24.40;;;9.40;99.90;;;;;;5112235;28;20019;-86
2021/11/12 01:36:42;;;;;;;37.13;25.85;;;9.40;99.90;;;;;;5112812;28;20099;-84
2021/11/12 01:39:12;;;;;;;38.83;25.42;;;9.30;99.90;;;;;;5116525;28;20075;-85
2021/11/12 01:41:46;;;;;;;34.30;24.08;;;9.30;99.90;;;;;;5115524;28;20104;-86
2021/11/12 01:44:27;;;;;;;35.72;23.95;;;9.30;99.90;;;;;;5105020;27;20167;-85
2021/11/12 01:47:08;;;;;;;34.92;24.20;;;9.30;99.90;;;;;;5116139;28;20073;-85
2021/11/12 01:49:37;;;;;;;35.42;25.08;;;9.30;99.90;;;;;;5117367;28;20023;-85
2021/11/12 01:59:36;;;;;;;33.42;23.17;;;9.20;99.90;;;;;;5116012;28;20035;-86
2021/11/12 02:02:08;;;;;;;38.47;26.77;;;9.10;99.90;;;;;;5115088;28;20027;-86
2021/11/12 02:04:37;;;;;;;39.95;26.83;;;9.10;99.90;;;;;;5112370;28;20046;-86
2021/11/12 02:07:04;;;;;;;35.22;25.20;;;9.10;99.90;;;;;;5114450;28;20016;-85
2021/11/12 02:09:31;;;;;;;40.05;28.08;;;9.10;99.90;;;;;;5114532;28;20466;-86
2021/11/12 02:12:16;;;;;;;35.55;24.55;;;9.00;99.90;;;;;;5113927;28;20043;-85
2021/11/12 02:14:54;;;;;;;34.15;25.20;;;9.00;99.90;;;;;;5113387;28;20080;-86
2021/11/12 02:17:26;;;;;;;44.92;29.77;;;9.00;99.90;;;;;;5114151;28;20057;-86
2021/11/12 02:20:04;;;;;;;39.90;29.10;;;8.90;99.90;;;;;;5114044;28;20135;-85
2021/11/12 02:22:37;;;;;;;42.20;28.50;;;8.90;99.90;;;;;;5113959;28;20036;-86
2021/11/12 02:25:16;;;;;;;39.30;26.92;;;8.90;99.90;;;;;;5114075;28;20386;-85
2021/11/12 02:28:00;;;;;;;38.28;26.42;;;8.80;99.90;;;;;;5112602;28;20417;-85
2021/11/12 02:30:32;;;;;;;35.58;25.10;;;8.80;99.90;;;;;;5113251;28;20028;-85
2021/11/12 02:33:03;;;;;;;37.50;25.63;;;8.80;99.90;;;;;;5111500;28;20105;-84
2021/11/12 02:35:32;;;;;;;36.58;25.60;;;8.80;99.90;;;;;;5112047;28;20023;-84
2021/11/12 02:37:59;;;;;;;35.47;25.15;;;8.80;99.90;;;;;;5113813;28;20080;-84
2021/11/12 02:40:28;;;;;;;34.60;25.25;;;8.70;99.90;;;;;;5113757;28;20019;-85
2021/11/12 02:42:55;;;;;;;40.72;28.38;;;8.70;99.90;;;;;;5110721;28;20134;-86
2021/11/12 02:45:21;;;;;;;37.90;26.30;;;8.60;99.90;;;;;;5113304;28;20194;-85
2021/11/12 02:47:47;;;;;;;36.38;24.48;;;8.60;99.90;;;;;;5113553;28;20028;-85
2021/11/12 02:50:15;;;;;;;35.17;25.05;;;8.60;99.90;;;;;;5113633;28;20031;-85
2021/11/12 02:52:42;;;;;;;33.17;21.80;;;8.60;99.90;;;;;;5096749;28;20030;-85
2021/11/12 02:55:09;;;;;;;33.42;21.60;;;8.60;99.90;;;;;;5113315;28;20378;-85
2021/11/12 02:57:36;;;;;;;29.40;21.60;;;8.60;99.90;;;;;;5113550;28;20011;-84
2021/11/12 03:00:05;;;;;;;32.55;21.67;;;8.60;99.90;;;;;;5113494;28;20026;-85
2021/11/12 03:02:32;;;;;;;32.22;22.08;;;8.60;99.90;;;;;;5114778;28;20027;-86
2021/11/12 03:04:59;;;;;;;34.55;22.80;;;8.60;99.90;;;;;;5113250;28;20051;-85
2021/11/12 03:07:25;;;;;;;32.33;23.77;;;8.60;99.90;;;;;;5113129;28;20035;-85
2021/11/12 03:09:51;;;;;;;31.90;21.50;;;8.50;99.90;;;;;;5113352;28;20019;-84
2021/11/12 03:12:18;;;;;;;33.70;22.33;;;8.50;99.90;;;;;;5112949;28;20391;-85
2021/11/12 03:14:44;;;;;;;35.08;22.15;;;8.50;99.90;;;;;;5113108;28;20022;-85
2021/11/12 03:17:10;;;;;;;37.10;22.77;;;8.40;99.90;;;;;;5112916;28;20024;-86
2021/11/12 03:19:36;;;;;;;32.28;21.77;;;8.40;99.90;;;;;;5113693;28;20024;-86
2021/11/12 03:22:06;;;;;;;35.90;24.05;;;8.40;99.90;;;;;;5112965;28;20111;-86
2021/11/12 03:24:38;;;;;;;36.35;23.98;;;8.40;99.90;;;;;;5112899;28;20024;-86
2021/11/12 04:02:37;;;;;;;41.63;27.60;;;7.90;99.90;;;;;;5113965;28;20092;-85
2021/11/12 04:40:31;;;;;;;49.60;31.25;;;7.00;99.90;;;;;;5113992;28;20544;-85
2021/11/12 05:11:16;;;;;;;45.30;30.45;;;6.10;99.90;;;;;;5118164;28;20050;-85
2021/11/12 05:46:05;;;;;;;39.83;27.38;;;5.30;99.90;;;;;;5116580;28;20489;-85
2021/11/12 05:56:36;;;;;;;36.88;26.58;;;5.20;99.90;;;;;;5116956;28;20094;-85
2021/11/12 05:59:03;;;;;;;37.78;24.50;;;5.20;99.90;;;;;;5115195;28;20027;-85
2021/11/12 06:01:31;;;;;;;34.40;24.80;;;5.10;99.90;;;;;;5097913;28;20059;-85
2021/11/12 06:03:57;;;;;;;43.88;27.40;;;5.10;99.90;;;;;;5115207;28;20063;-85
2021/11/12 06:06:26;;;;;;;41.60;27.45;;;5.10;99.90;;;;;;5115260;28;20020;-85
2021/11/12 06:09:00;;;;;;;38.28;27.15;;;5.00;99.90;;;;;;5115308;28;20016;-85
2021/11/12 06:11:27;;;;;;;39.70;25.58;;;5.10;99.90;;;;;;5115177;28;20077;-84
2021/11/12 06:14:00;;;;;;;33.97;24.40;;;5.00;99.90;;;;;;5098239;28;20459;-84
2021/11/12 06:16:30;;;;;;;32.20;22.23;;;5.00;99.90;;;;;;5116570;27;20051;-85
2021/11/12 06:19:00;;;;;;;33.70;23.38;;;5.00;99.90;;;;;;5115058;28;20034;-85
2021/11/12 06:21:26;;;;;;;33.60;22.67;;;5.00;99.90;;;;;;5114755;28;20036;-84
2021/11/12 06:23:55;;;;;;;38.10;26.70;;;5.00;99.90;;;;;;5114670;28;20027;-84
2021/11/12 06:26:24;;;;;;;37.17;25.63;;;4.90;99.90;;;;;;5114829;28;20016;-85
2021/11/12 06:28:51;;;;;;;35.70;26.02;;;4.90;99.90;;;;;;5114842;28;20023;-85
2021/11/12 06:31:19;;;;;;;34.47;24.83;;;4.90;99.90;;;;;;5113552;28;20032;-85
2021/11/12 06:33:49;;;;;;;34.38;24.30;;;4.80;99.90;;;;;;5114605;28;20028;-85
2021/11/12 06:36:17;;;;;;;30.40;21.50;;;4.80;99.90;;;;;;5098041;28;20035;-85
2021/11/12 06:38:43;;;;;;;31.45;22.65;;;4.70;99.90;;;;;;5114627;28;20024;-85
2021/11/12 06:41:13;;;;;;;29.92;22.13;;;4.70;99.90;;;;;;5116099;28;20055;-85
2021/11/12 06:43:55;;;;;;;27.23;20.10;;;4.70;99.90;;;;;;5098198;28;20118;-85
2021/11/12 06:49:29;;;;;;;25.95;18.20;;;4.60;99.90;;;;;;5115986;28;20047;-85
2021/11/12 06:52:03;;;;;;;29.00;19.42;;;4.60;99.90;;;;;;5115773;28;20132;-85
2021/11/12 06:54:28;;;;;;;26.80;19.30;;;4.60;99.90;;;;;;5115616;28;20424;-86
2021/11/12 06:56:59;;;;;;;29.60;20.23;;;4.60;99.90;;;;;;5115314;28;20110;-86
2021/11/12 06:59:29;;;;;;;26.40;19.00;;;4.60;99.90;;;;;;5081200;28;20024;-86
2021/11/12 07:01:56;;;;;;;24.60;17.08;;;4.50;99.90;;;;;;5113888;28;20042;-84
2021/11/12 07:04:22;;;;;;;22.30;16.70;;;4.50;99.90;;;;;;5114167;28;20036;-85
2021/11/12 07:06:48;;;;;;;26.42;18.75;;;4.50;99.90;;;;;;5114442;28;20023;-85
2021/11/12 07:09:14;;;;;;;22.63;16.17;;;4.50;99.90;;;;;;5114176;28;20055;-85
2021/11/12 07:11:40;;;;;;;28.48;19.90;;;4.50;99.90;;;;;;5114391;28;20024;-85
2021/11/12 07:14:06;;;;;;;33.42;23.58;;;4.50;99.90;;;;;;5114215;28;20122;-85
2021/11/12 07:16:36;;;;;;;39.13;26.50;;;4.40;99.90;;;;;;5115278;27;20085;-84
2021/11/12 07:19:04;;;;;;;36.15;24.75;;;4.40;99.90;;;;;;5115398;28;20106;-84
2021/11/12 07:21:30;;;;;;;34.40;22.95;;;4.40;99.90;;;;;;5096623;28;20035;-85
2021/11/12 07:23:57;;;;;;;34.55;23.13;;;4.30;99.90;;;;;;5115119;28;20029;-85
2021/11/12 07:26:23;;;;;;;33.95;23.00;;;4.30;99.90;;;;;;5097671;28;20478;-85
2021/11/12 07:28:50;;;;;;;35.50;23.90;;;4.30;99.90;;;;;;5113986;28;20022;-84
2021/11/12 07:31:19;;;;;;;32.60;23.05;;;4.30;99.90;;;;;;5096647;28;20130;-85
2021/11/12 07:33:52;;;;;;;33.30;23.45;;;4.30;99.90;;;;;;5113567;28;20024;-84
2021/11/12 07:44:17;;;;;;;28.98;19.83;;;4.50;99.90;;;;;;5114664;28;20031;-84
2021/11/12 07:49:11;;;;;;;35.53;24.95;;;4.50;99.90;;;;;;5114439;28;20475;-85
2021/11/12 07:51:41;;;;;;;36.60;24.70;;;4.50;99.90;;;;;;5113633;28;20427;-84
2021/11/12 07:54:12;;;;;;;34.13;23.85;;;4.50;99.90;;;;;;5114505;28;20054;-84
2021/11/12 07:56:39;;;;;;;36.85;24.55;;;4.50;99.90;;;;;;5079969;28;20497;-85
2021/11/12 07:59:05;;;;;;;36.50;24.48;;;4.50;99.90;;;;;;5095819;28;20475;-85
2021/11/12 08:01:31;;;;;;;33.33;23.05;;;4.60;99.90;;;;;;5112690;28;20063;-83
2021/11/12 08:04:00;;;;;;;32.90;22.65;;;4.60;99.90;;;;;;5113253;28;20064;-84
2021/11/12 08:06:28;;;;;;;32.78;22.77;;;4.60;99.90;;;;;;5113142;28;20035;-84
2021/11/12 08:08:59;;;;;;;34.15;23.45;;;4.70;99.90;;;;;;5096634;28;20474;-85
2021/11/12 08:14:15;;;;;;;35.35;23.17;;;4.80;99.90;;;;;;5114589;28;20026;-84
2021/11/12 08:17:22;;;;;;;34.25;23.52;;;4.90;99.90;;;;;;5113349;28;20028;-84
2021/11/12 08:27:33;;;;;;;46.13;28.00;;;5.20;99.90;;;;;;5114699;28;20039;-83
2021/11/12 08:42:53;;;;;;;44.83;29.45;;;5.60;99.90;;;;;;5117015;28;20044;-84
2021/11/12 08:45:26;;;;;;;41.17;28.35;;;5.70;99.90;;;;;;5116670;28;20067;-84
2021/11/12 08:47:56;;;;;;;44.22;29.70;;;5.80;99.90;;;;;;5117289;28;20024;-84
2021/11/12 08:50:23;;;;;;;46.75;30.73;;;6.30;99.90;;;;;;5117284;28;20023;-84
2021/11/12 08:53:03;;;;;;;38.95;26.40;;;7.50;99.90;;;;;;5117187;28;20024;-84
2021/11/12 08:55:31;;;;;;;39.25;26.42;;;8.70;99.90;;;;;;5119030;28;20051;-84
2021/11/12 08:57:59;;;;;;;38.10;26.95;;;9.80;99.90;;;;;;5118137;28;20023;-84
2021/11/12 09:00:31;;;;;;;36.97;25.25;;;10.50;99.90;;;;;;5117653;28;20032;-84
2021/11/12 09:02:57;;;;;;;34.35;24.40;;;11.00;99.90;;;;;;5116411;28;20110;-84
2021/11/12 09:05:24;;;;;;;33.10;24.20;;;11.40;99.90;;;;;;5117544;27;20107;-84
2021/11/12 09:07:52;;;;;;;35.70;23.27;;;11.80;99.90;;;;;;5099609;28;20024;-84
2021/11/12 09:10:27;;;;;;;31.73;23.33;;;12.10;99.90;;;;;;5116397;28;20416;-84
2021/11/12 09:13:05;;;;;;;33.17;21.27;;;12.40;99.90;;;;;;5116605;28;20063;-85
2021/11/12 09:15:33;;;;;;;31.45;21.50;;;12.70;99.90;;;;;;5116421;28;20023;-84
2021/11/12 09:18:01;;;;;;;26.80;20.27;;;13.00;99.90;;;;;;5099535;28;20438;-84
2021/11/12 09:20:29;;;;;;;27.17;20.65;;;13.40;99.90;;;;;;5116205;28;20027;-84
2021/11/12 09:22:58;;;;;;;28.67;21.42;;;13.80;99.90;;;;;;5116146;28;20126;-84
2021/11/12 09:25:31;;;;;;;25.80;18.95;;;14.00;99.90;;;;;;5114725;28;20114;-85
2021/11/12 09:27:57;;;;;;;28.75;20.45;;;14.30;99.90;;;;;;5099566;28;20043;-85
2021/11/12 09:30:25;;;;;;;32.85;21.50;;;14.50;99.90;;;;;;5115874;28;20032;-84
2021/11/12 09:32:54;;;;;;;31.15;21.30;;;14.40;99.90;;;;;;5115597;28;20036;-85
2021/11/12 09:35:23;;;;;;;25.27;18.88;;;14.30;99.90;;;;;;5114368;28;20101;-85
2021/11/12 09:37:49;;;;;;;31.23;21.05;;;14.60;99.90;;;;;;5098584;28;20023;-84
2021/11/12 09:40:17;;;;;;;29.95;21.95;;;14.80;99.90;;;;;;5114711;28;20034;-86
2021/11/12 09:42:47;;;;;;;29.33;20.73;;;14.80;99.90;;;;;;5105522;28;20068;-86
2021/11/12 09:45:15;;;;;;;33.25;20.88;;;14.80;99.90;;;;;;5104175;28;20040;-85
2021/11/12 09:47:42;;;;;;;27.27;19.90;;;14.60;99.90;;;;;;5115669;28;20032;-85
2021/11/12 09:50:22;;;;;;;27.23;19.50;;;14.70;99.90;;;;;;5115856;28;20080;-86
2021/11/12 09:52:55;;;;;;;28.77;19.98;;;15.00;99.90;;;;;;5115341;28;20083;-84
2021/11/12 09:55:23;;;;;;;24.48;17.92;;;15.30;99.90;;;;;;5097129;28;20028;-84
2021/11/12 09:57:50;;;;;;;30.55;19.67;;;15.70;99.90;;;;;;5114818;28;20031;-86
2021/11/12 10:00:22;;;;;;;26.05;20.15;;;16.10;99.90;;;;;;5114062;28;20035;-84
2021/11/12 10:02:50;;;;;;;28.73;21.83;;;16.20;99.90;;;;;;5113858;28;20035;-84
2021/11/12 10:05:39;;;;;;;29.80;21.67;;;16.20;99.90;;;;;;5115205;28;20036;-84
2021/11/12 10:08:49;;;;;;;25.67;18.65;;;16.20;99.90;;;;;;5113715;28;20038;-83
2021/11/12 10:11:26;;;;;;;28.65;20.30;;;16.50;99.90;;;;;;5065655;28;20051;-84
2021/11/12 10:14:00;;;;;;;24.83;18.10;;;16.70;99.90;;;;;;5112560;28;20030;-84
2021/11/12 10:16:38;;;;;;;25.77;20.05;;;16.80;99.90;;;;;;5114205;28;20047;-85
2021/11/12 10:19:12;;;;;;;30.70;20.77;;;16.90;99.90;;;;;;5113535;28;20059;-85
2021/11/12 10:21:58;;;;;;;25.27;19.48;;;16.80;99.90;;;;;;5114457;28;20032;-85
2021/11/12 10:24:32;;;;;;;25.85;20.25;;;16.60;99.90;;;;;;5119058;28;20459;-85
2021/11/12 10:27:29;;;;;;;34.10;24.25;;;16.60;99.90;;;;;;5114691;27;20028;-85
2021/11/12 10:30:09;;;;;;;27.73;20.85;;;16.40;99.90;;;;;;5113030;28;20118;-85
2021/11/12 10:32:56;;;;;;;30.50;22.73;;;16.10;99.90;;;;;;5112683;28;20525;-85
2021/11/12 10:35:31;;;;;;;32.88;23.52;;;16.10;99.90;;;;;;5113136;28;20475;-86
2021/11/12 10:38:13;;;;;;;31.90;23.65;;;16.00;99.90;;;;;;5114298;28;20035;-86
2021/11/12 10:40:44;;;;;;;31.20;24.20;;;16.00;99.90;;;;;;5114035;28;20020;-86
2021/11/12 10:43:22;;;;;;;29.73;24.17;;;15.90;99.90;;;;;;5112786;28;20035;-86
2021/11/12 10:46:08;;;;;;;30.70;23.23;;;16.10;99.90;;;;;;5112422;28;20032;-86
2021/11/12 10:48:39;;;;;;;30.15;22.73;;;15.90;99.90;;;;;;5110075;28;20032;-87
2021/11/12 10:51:49;;;;;;;26.35;20.45;;;15.80;99.90;;;;;;5112780;28;20028;-86
2021/11/12 10:54:44;;;;;;;31.25;23.27;;;16.30;99.90;;;;;;5101166;28;20034;-86
2021/11/12 10:57:14;;;;;;;30.27;22.85;;;16.50;99.90;;;;;;5113358;28;20023;-86
2021/11/12 11:00:12;;;;;;;28.73;22.63;;;16.50;99.90;;;;;;5112575;28;20026;-86
2021/11/12 11:02:41;;;;;;;27.88;21.92;;;16.50;99.90;;;;;;5112612;28;20038;-86
2021/11/12 11:05:16;;;;;;;28.92;21.92;;;16.60;99.90;;;;;;5112223;28;20020;-86
2021/11/12 11:08:34;;;;;;;28.05;21.88;;;16.90;99.90;;;;;;5112852;28;20028;-86
2021/11/12 11:11:09;;;;;;;25.83;20.33;;;16.60;99.90;;;;;;5111460;28;20035;-86
2021/11/12 11:13:48;;;;;;;27.17;21.55;;;16.40;99.90;;;;;;5113184;28;20023;-86
2021/11/12 11:16:28;;;;;;;23.95;18.33;;;16.50;99.90;;;;;;5095733;28;20089;-87
2021/11/12 11:19:01;;;;;;;27.33;19.88;;;16.90;99.90;;;;;;5113730;28;20034;-87
2021/11/12 11:21:35;;;;;;;27.08;21.08;;;17.30;99.90;;;;;;5113950;28;20035;-85
2021/11/12 11:24:05;;;;;;;24.15;19.40;;;17.30;99.90;;;;;;5113544;28;20051;-86
2021/11/12 11:26:46;;;;;;;29.98;23.85;;;17.30;99.90;;;;;;5122175;28;20054;-85
2021/11/12 11:29:25;;;;;;;28.63;22.02;;;17.40;98.50;;;;;;5130441;28;20037;-86
2021/11/12 11:31:58;;;;;;;22.58;18.42;;;17.10;99.60;;;;;;5130515;28;20057;-86
2021/11/12 11:34:29;;;;;;;;;;;17.40;99.90;;;;;;5117455;28;20026;-85
2021/11/12 11:37:08;;;;;;;27.65;19.85;;;17.90;99.90;;;;;;5112829;28;19903;-87
2021/11/12 11:39:37;;;;;;;25.90;21.05;;;18.70;99.50;;;;;;5112164;28;20028;-88
2021/11/12 11:42:05;;;;;;;23.58;19.00;;;18.60;97.70;;;;;;5112945;28;20060;-87
2021/11/12 11:44:32;;;;;;;23.02;18.58;;;18.30;98.30;;;;;;5112123;28;20531;-86
2021/11/12 11:47:01;;;;;;;22.75;17.88;;;17.90;98.90;;;;;;5114425;28;20052;-86
2021/11/12 11:49:49;;;;;;;20.90;16.75;;;18.00;99.60;;;;;;5112068;28;20084;-86
2021/11/12 11:52:54;;;;;;;21.77;18.48;;;18.40;99.30;;;;;;5106449;28;20018;-87
2021/11/12 11:55:59;;;;;;;23.40;18.67;;;18.60;98.10;;;;;;5092955;28;20040;-86
2021/11/12 11:58:56;;;;;;;23.58;19.95;;;17.90;98.40;;;;;;5104151;28;20106;-85
2021/11/12 12:02:25;;;;;;;26.88;21.50;;;16.60;97.60;;;;;;5108241;28;20032;-87
2021/11/12 12:05:14;;;;;;;30.73;24.23;;;15.30;99.90;;;;;;5047180;28;20056;-87
2021/11/12 12:08:33;;;;;;;31.90;25.20;;;14.00;99.90;;;;;;5107836;28;20051;-87
2021/11/12 12:11:54;;;;;;;33.50;24.60;;;13.20;99.90;;;;;;5095221;28;20035;-87
2021/11/12 12:14:40;;;;;;;27.83;21.77;;;12.50;99.90;;;;;;5106040;27;20032;-87
2021/11/12 12:17:24;;;;;;;33.33;24.83;;;12.20;99.90;;;;;;5104199;28;20058;-86
2021/11/12 12:35:07;;;;;;;36.72;26.33;;;11.00;99.90;;;;;;5109484;28;20579;-86
2021/11/12 13:25:53;;;;;;;36.63;26.58;;;10.30;99.90;;;;;;5105491;28;20119;-86
2021/11/12 13:28:31;;;;;;;33.83;24.95;;;10.20;99.90;;;;;;5111374;28;20059;-86
2021/11/12 13:31:16;;;;;;;34.65;26.00;;;10.30;99.90;;;;;;5111289;27;20023;-87
2021/11/12 13:34:02;;;;;;;37.45;26.83;;;10.30;99.90;;;;;;5104413;28;20088;-86
2021/11/12 13:36:42;;;;;;;35.58;26.67;;;10.30;99.90;;;;;;5111365;27;20031;-86
2021/11/12 13:39:20;;;;;;;37.28;26.58;;;10.20;99.90;;;;;;5106272;28;20522;-86
2021/11/12 13:41:59;;;;;;;37.10;26.75;;;10.10;99.90;;;;;;5095754;28;20042;-86
2021/11/12 13:44:31;;;;;;;34.22;25.50;;;10.00;99.90;;;;;;5110228;28;20039;-86
2021/11/12 13:47:03;;;;;;;33.97;24.70;;;10.00;99.90;;;;;;5109437;28;20490;-87
2021/11/12 13:49:47;;;;;;;40.53;25.80;;;9.90;99.90;;;;;;5109450;28;20548;-86
2021/11/12 13:52:23;;;;;;;36.58;25.55;;;9.90;99.90;;;;;;5111335;28;20037;-86
2021/11/12 13:54:56;;;;;;;36.38;27.92;;;9.90;99.90;;;;;;5110678;27;20173;-86
2021/11/12 13:57:28;;;;;;;38.28;27.83;;;9.90;99.90;;;;;;5122244;27;20047;-85
2021/11/12 14:00:02;;;;;;;38.15;27.85;;;9.80;99.90;;;;;;5111303;28;20029;-86
2021/11/12 14:02:31;;;;;;;34.47;26.05;;;9.80;99.90;;;;;;5110121;28;20028;-85
2021/11/12 14:05:15;;;;;;;33.45;25.70;;;9.70;99.90;;;;;;5111951;28;20076;-86
2021/11/12 14:07:43;;;;;;;40.50;27.60;;;9.70;99.90;;;;;;5110071;28;20054;-86
2021/11/12 14:10:16;;;;;;;37.03;26.23;;;9.60;99.90;;;;;;5111345;28;20031;-85
2021/11/12 14:13:00;;;;;;;36.38;25.95;;;9.60;99.90;;;;;;5113493;28;20020;-85
2021/11/12 14:15:40;;;;;;;35.70;26.52;;;9.50;99.90;;;;;;5108722;28;20612;-85
2021/11/12 14:24:13;;;;;;;38.65;26.65;;;9.30;99.90;;;;;;5110454;28;20094;-85
2021/11/12 14:29:18;;;;;;;36.78;27.25;;;9.20;99.90;;;;;;5109587;28;20039;-86
2021/11/12 14:31:50;;;;;;;38.67;26.30;;;9.20;99.90;;;;;;5107788;28;20084;-87
2021/11/12 14:36:57;;;;;;;36.17;25.08;;;9.20;99.90;;;;;;5111136;28;20610;-85
2021/11/12 14:39:47;;;;;;;36.33;26.20;;;9.10;99.90;;;;;;5109593;28;20108;-85
2021/11/12 14:42:39;;;;;;;32.67;24.08;;;9.00;99.90;;;;;;5094507;28;20134;-87
2021/11/12 14:45:28;;;;;;;35.28;25.45;;;8.90;99.90;;;;;;5110682;28;20106;-85
2021/11/12 14:48:13;;;;;;;32.45;23.10;;;9.00;99.90;;;;;;5105848;28;20040;-86
2021/11/12 14:53:51;;;;;;;38.33;26.52;;;8.90;99.90;;;;;;5104708;28;20419;-85
2021/11/12 14:56:27;;;;;;;39.38;26.63;;;8.90;99.90;;;;;;5126368;27;20023;-85
2021/11/12 14:59:14;;;;;;;37.28;26.88;;;8.80;99.90;;;;;;5108856;28;20035;-85
2021/11/12 15:01:47;;;;;;;35.75;24.83;;;8.70;99.90;;;;;;5109005;28;20477;-87
2021/11/12 15:04:17;;;;;;;38.30;25.97;;;8.70;99.90;;;;;;5109293;28;20034;-85
2021/11/12 15:06:46;;;;;;;39.15;27.63;;;8.70;99.90;;;;;;5109386;28;20734;-85
2021/11/12 15:09:26;;;;;;;39.17;27.45;;;8.60;99.90;;;;;;5108910;28;20026;-85
2021/11/12 15:12:09;;;;;;;36.78;25.95;;;8.60;99.90;;;;;;5110805;27;20039;-85
2021/11/12 15:14:46;;;;;;;35.88;26.38;;;8.60;99.90;;;;;;5109165;28;20016;-85
2021/11/12 15:17:24;;;;;;;39.90;26.23;;;8.60;99.90;;;;;;5108697;28;20392;-86
2021/11/12 15:19:57;;;;;;;38.20;27.17;;;8.50;99.90;;;;;;5106571;28;20020;-85
2021/11/12 15:28:35;;;;;;;32.50;24.38;;;8.40;99.90;;;;;;5087542;28;20044;-87
2021/11/12 15:33:19;;;;;;;35.33;25.75;;;8.30;99.90;;;;;;5109096;28;20038;-86
2021/11/12 15:35:56;;;;;;;34.15;25.45;;;8.30;99.90;;;;;;5107798;28;20019;-85
2021/11/12 15:41:09;;;;;;;34.30;24.33;;;8.30;99.90;;;;;;5108175;28;20042;-86
2021/11/12 15:46:29;;;;;;;34.10;25.67;;;8.30;99.90;;;;;;5108798;28;20112;-85
2021/11/12 15:49:09;;;;;;;35.53;24.15;;;8.30;99.90;;;;;;5106455;28;20146;-86
2021/11/12 15:51:58;;;;;;;35.50;25.00;;;8.30;99.90;;;;;;5109629;28;20032;-85
2021/11/12 16:08:15;;;;;;;28.15;20.27;;;8.10;99.90;;;;;;5110445;28;20039;-85
2021/11/12 16:19:28;;;;;;;32.13;24.25;;;8.10;99.90;;;;;;5107950;28;20035;-85
2021/11/12 16:22:29;;;;;;;27.58;21.13;;;8.10;99.90;;;;;;5109232;28;20027;-86
2021/11/12 16:27:42;;;;;;;27.55;19.38;;;8.00;99.90;;;;;;5109870;28;20066;-85
2021/11/12 16:30:15;;;;;;;25.38;18.70;;;8.00;99.90;;;;;;5108831;28;20024;-86
2021/11/12 16:32:45;;;;;;;25.08;18.23;;;8.00;99.90;;;;;;5106243;28;20429;-86
2021/11/12 16:35:23;;;;;;;26.42;19.08;;;8.00;99.90;;;;;;5107949;28;20024;-85
2021/11/12 16:38:28;;;;;;;24.52;19.00;;;8.00;99.90;;;;;;5110326;28;20061;-85
2021/11/12 16:41:32;;;;;;;27.33;20.52;;;8.00;99.90;;;;;;5113171;28;20024;-85
2021/11/12 16:46:53;;;;;;;25.23;18.38;;;8.00;99.90;;;;;;5126062;28;20082;-87
2021/11/12 16:49:47;;;;;;;27.48;20.75;;;8.00;99.90;;;;;;5114075;28;20176;-87
2021/11/12 16:52:28;;;;;;;28.20;20.17;;;8.00;99.90;;;;;;5111523;28;20104;-86
2021/11/12 16:57:57;;;;;;;24.80;17.25;;;8.00;99.90;;;;;;5113721;28;20071;-85
2021/11/12 17:03:27;;;;;;;23.20;16.40;;;8.00;99.90;;;;;;5113018;28;20118;-86
2021/11/12 17:06:05;;;;;;;23.90;16.52;;;8.00;99.90;;;;;;5112570;28;20038;-86
2021/11/12 17:08:51;;;;;;;22.45;15.63;;;8.00;99.90;;;;;;5112193;27;20114;-86
2021/11/12 17:19:53;;;;;;;19.92;14.27;;;8.00;99.90;;;;;;5112110;28;20031;-86
2021/11/12 17:45:12;;;;;;;22.23;14.68;;;8.00;99.90;;;;;;5112940;28;20161;-86
2021/11/12 17:47:41;;;;;;;22.23;15.43;;;8.00;99.90;;;;;;5109673;28;20051;-86
2021/11/12 17:50:25;;;;;;;23.65;15.73;;;8.10;99.90;;;;;;5110883;28;20023;-84
2021/11/12 18:02:05;;;;;;;25.65;16.52;;;8.40;99.90;;;;;;5085431;28;20028;-84
2021/11/12 18:04:45;;;;;;;22.15;15.25;;;8.50;99.90;;;;;;5109464;28;20031;-86
2021/11/12 21:47:30;;;;;;;18.80;14.05;;;9.30;99.90;;;;;;5111723;28;20047;-85
2021/11/12 21:49:59;;;;;;;24.05;15.30;;;9.30;99.90;;;;;;5112493;27;20390;-86
2021/11/12 21:52:25;;;;;;;20.92;14.90;;;9.30;99.90;;;;;;5111427;28;20020;-86
2021/11/12 21:54:55;;;;;;;20.45;13.88;;;9.30;99.90;;;;;;5111200;28;20069;-87
2021/11/12 21:57:21;;;;;;;23.23;15.98;;;9.40;99.90;;;;;;5111989;28;20050;-86
2021/11/12 21:59:47;;;;;;;20.95;14.93;;;9.40;99.90;;;;;;5110882;28;20623;-86
2021/11/12 22:02:14;;;;;;;20.70;14.75;;;9.40;99.90;;;;;;5110357;28;20027;-86
2021/11/12 22:04:41;;;;;;;21.08;15.07;;;9.40;99.90;;;;;;5113882;27;20096;-85
2021/11/12 22:07:07;;;;;;;19.00;14.02;;;9.40;99.90;;;;;;5113318;28;20042;-87
2021/11/12 22:09:33;;;;;;;24.52;15.70;;;9.40;99.90;;;;;;5112928;28;20019;-85
2021/11/12 22:12:02;;;;;;;23.60;15.43;;;9.40;99.90;;;;;;5115682;27;20023;-86
2021/11/12 22:14:29;;;;;;;21.08;14.38;;;9.40;99.90;;;;;;5134399;27;20054;-86
2021/11/12 22:16:56;;;;;;;21.23;15.50;;;9.40;99.90;;;;;;5134392;27;20020;-87
2021/11/12 22:19:23;;;;;;;22.30;15.57;;;9.50;99.90;;;;;;5130409;28;20030;-87
2021/11/12 22:21:49;;;;;;;24.45;16.35;;;9.50;99.90;;;;;;5130647;28;20087;-87
2021/11/12 22:24:16;;;;;;;23.85;17.08;;;9.50;99.90;;;;;;5130180;28;20055;-86
2021/11/12 22:26:46;;;;;;;24.17;16.95;;;9.50;99.90;;;;;;5114356;28;20549;-87
2021/11/12 22:29:15;;;;;;;24.58;17.38;;;9.50;99.90;;;;;;5112171;28;20031;-86
2021/11/12 22:31:41;;;;;;;22.88;16.73;;;9.50;99.90;;;;;;5113395;28;20019;-86
2021/11/12 22:34:39;;;;;;;;;;;;;;;;;;;;;
2021/11/12 22:37:06;;;;;;;24.67;14.95;;;9.60;99.90;;;;;;5106154;28;20035;-86
2021/11/12 22:39:32;;;;;;;23.17;16.52;;;9.50;99.90;;;;;;5111657;28;20028;-85
2021/11/12 22:41:59;;;;;;;21.08;14.70;;;9.60;99.90;;;;;;5111366;28;20038;-86
2021/11/12 22:44:25;;;;;;;21.67;15.60;;;9.60;99.90;;;;;;5110368;28;20024;-86
2021/11/12 22:46:51;;;;;;;20.30;14.63;;;9.60;99.90;;;;;;5110508;28;20040;-86
2021/11/12 22:49:27;;;;;;;20.67;14.93;;;9.60;99.90;;;;;;5110782;28;20131;-84
2021/11/12 22:51:54;;;;;;;28.00;19.50;;;9.60;99.90;;;;;;5089825;28;20032;-85